sensor_id;sensor_type;location;lat;lon;timestamp;pressure;altitude;pressure_sealevel;temperature;humidity
73024;BME280;72676;47.526;8.538;2024-01-06T00:00:32;95240.19;;;7.36;84.90
73024;BME280;72676;47.526;8.538;2024-01-06T00:02:58;95237.50;;;7.73;84.23
73024;BME280;72676;47.526;8.538;2024-01-06T00:05:25;95237.09;;;7.95;83.70
73024;BME280;72676;47.526;8.538;2024-01-06T00:07:51;95241.34;;;8.13;82.91
73024;BME280;72676;47.526;8.538;2024-01-06T00:10:18;95237.44;;;8.27;82.08
73024;BME280;72676;47.526;8.538;2024-01-06T00:12:44;95235.19;;;8.32;81.74
73024;BME280;72676;47.526;8.538;2024-01-06T00:15:11;95230.72;;;8.42;81.50
73024;BME280;72676;47.526;8.538;2024-01-06T00:17:38;95230.41;;;8.45;81.00
73024;BME280;72676;47.526;8.538;2024-01-06T00:20:05;95235.03;;;8.51;80.48
73024;BME280;72676;47.526;8.538;2024-01-06T00:22:32;95241.72;;;8.53;80.39
73024;BME280;72676;47.526;8.538;2024-01-06T00:24:59;95240.25;;;8.51;80.20
73024;BME280;72676;47.526;8.538;2024-01-06T00:27:26;95241.44;;;8.56;80.20
73024;BME280;72676;47.526;8.538;2024-01-06T00:29:52;95245.16;;;8.54;80.06
73024;BME280;72676;47.526;8.538;2024-01-06T00:32:19;95254.47;;;8.56;80.21
73024;BME280;72676;47.526;8.538;2024-01-06T00:34:45;95256.00;;;8.66;79.56
73024;BME280;72676;47.526;8.538;2024-01-06T00:37:13;95257.13;;;8.12;81.00
73024;BME280;72676;47.526;8.538;2024-01-06T00:39:40;95259.72;;;8.12;81.32
73024;BME280;72676;47.526;8.538;2024-01-06T00:42:06;95255.88;;;8.16;81.66
73024;BME280;72676;47.526;8.538;2024-01-06T00:44:35;95261.03;;;8.25;81.02
73024;BME280;72676;47.526;8.538;2024-01-06T00:47:02;95259.47;;;8.32;80.70
73024;BME280;72676;47.526;8.538;2024-01-06T00:49:29;95261.19;;;8.41;79.97
73024;BME280;72676;47.526;8.538;2024-01-06T00:51:55;95263.19;;;8.30;79.71
73024;BME280;72676;47.526;8.538;2024-01-06T00:54:22;95266.50;;;8.32;79.37
73024;BME280;72676;47.526;8.538;2024-01-06T00:56:49;95268.81;;;8.35;79.43
73024;BME280;72676;47.526;8.538;2024-01-06T00:59:15;95264.78;;;8.40;79.24
73024;BME280;72676;47.526;8.538;2024-01-06T01:01:42;95267.31;;;8.32;79.29
73024;BME280;72676;47.526;8.538;2024-01-06T01:04:08;95274.38;;;8.40;79.65
73024;BME280;72676;47.526;8.538;2024-01-06T01:06:36;95271.09;;;8.38;79.57
73024;BME280;72676;47.526;8.538;2024-01-06T01:09:03;95275.72;;;8.44;79.56
73024;BME280;72676;47.526;8.538;2024-01-06T01:11:30;95285.72;;;8.48;79.28
73024;BME280;72676;47.526;8.538;2024-01-06T01:13:57;95284.75;;;8.49;79.13
73024;BME280;72676;47.526;8.538;2024-01-06T01:16:23;95277.75;;;8.50;78.67
73024;BME280;72676;47.526;8.538;2024-01-06T01:18:50;95278.78;;;8.57;79.07
73024;BME280;72676;47.526;8.538;2024-01-06T01:21:17;95292.97;;;8.54;78.92
73024;BME280;72676;47.526;8.538;2024-01-06T01:23:44;95296.03;;;8.50;78.80
73024;BME280;72676;47.526;8.538;2024-01-06T01:26:10;95304.19;;;8.55;78.59
73024;BME280;72676;47.526;8.538;2024-01-06T01:28:37;95304.78;;;8.49;79.04
73024;BME280;72676;47.526;8.538;2024-01-06T01:31:03;95305.47;;;8.51;79.13
73024;BME280;72676;47.526;8.538;2024-01-06T01:33:30;95312.88;;;8.55;78.85
73024;BME280;72676;47.526;8.538;2024-01-06T01:35:57;95316.28;;;8.56;78.81
73024;BME280;72676;47.526;8.538;2024-01-06T01:38:27;95324.03;;;8.65;78.46
73024;BME280;72676;47.526;8.538;2024-01-06T01:40:53;95319.41;;;8.59;78.54
73024;BME280;72676;47.526;8.538;2024-01-06T01:43:20;95325.06;;;8.55;78.47
73024;BME280;72676;47.526;8.538;2024-01-06T01:45:50;95321.59;;;8.46;78.12
73024;BME280;72676;47.526;8.538;2024-01-06T01:48:20;95325.38;;;8.52;78.73
73024;BME280;72676;47.526;8.538;2024-01-06T01:50:47;95315.75;;;8.52;78.57
73024;BME280;72676;47.526;8.538;2024-01-06T01:53:14;95327.38;;;8.57;77.91
73024;BME280;72676;47.526;8.538;2024-01-06T01:55:41;95326.94;;;8.62;77.82
73024;BME280;72676;47.526;8.538;2024-01-06T01:58:10;95326.03;;;8.71;77.29
73024;BME280;72676;47.526;8.538;2024-01-06T02:00:38;95325.53;;;8.68;77.40
73024;BME280;72676;47.526;8.538;2024-01-06T02:03:05;95326.00;;;8.63;77.24
73024;BME280;72676;47.526;8.538;2024-01-06T02:05:32;95326.66;;;8.65;77.45
73024;BME280;72676;47.526;8.538;2024-01-06T02:07:58;95330.06;;;8.65;76.32
73024;BME280;72676;47.526;8.538;2024-01-06T02:10:25;95329.19;;;8.57;76.71
73024;BME280;72676;47.526;8.538;2024-01-06T02:12:52;95330.66;;;8.42;76.60
73024;BME280;72676;47.526;8.538;2024-01-06T02:15:19;95325.97;;;8.46;76.63
73024;BME280;72676;47.526;8.538;2024-01-06T02:17:45;95324.03;;;8.48;76.96
73024;BME280;72676;47.526;8.538;2024-01-06T02:20:13;95333.88;;;8.54;76.63
73024;BME280;72676;47.526;8.538;2024-01-06T02:22:40;95330.28;;;8.55;76.70
73024;BME280;72676;47.526;8.538;2024-01-06T02:25:07;95330.28;;;8.55;76.37
73024;BME280;72676;47.526;8.538;2024-01-06T02:27:39;95331.66;;;8.59;76.30
73024;BME280;72676;47.526;8.538;2024-01-06T02:30:06;95334.63;;;8.63;76.15
73024;BME280;72676;47.526;8.538;2024-01-06T02:32:33;95343.72;;;8.60;75.67
73024;BME280;72676;47.526;8.538;2024-01-06T02:35:00;95347.91;;;8.53;75.96
73024;BME280;72676;47.526;8.538;2024-01-06T02:37:27;95336.63;;;8.52;75.73
73024;BME280;72676;47.526;8.538;2024-01-06T02:39:53;95347.91;;;8.53;76.09
73024;BME280;72676;47.526;8.538;2024-01-06T02:42:20;95343.25;;;8.47;75.70
73024;BME280;72676;47.526;8.538;2024-01-06T02:44:47;95346.03;;;8.45;75.92
73024;BME280;72676;47.526;8.538;2024-01-06T02:47:13;95355.50;;;8.46;74.70
73024;BME280;72676;47.526;8.538;2024-01-06T02:49:40;95347.94;;;8.43;75.57
73024;BME280;72676;47.526;8.538;2024-01-06T02:52:06;95348.22;;;8.50;75.45
73024;BME280;72676;47.526;8.538;2024-01-06T02:54:33;95354.16;;;8.42;75.26
73024;BME280;72676;47.526;8.538;2024-01-06T02:57:00;95352.59;;;8.49;75.38
73024;BME280;72676;47.526;8.538;2024-01-06T02:59:26;95352.06;;;8.46;75.09
73024;BME280;72676;47.526;8.538;2024-01-06T03:01:53;95348.22;;;8.50;75.08
73024;BME280;72676;47.526;8.538;2024-01-06T03:04:19;95350.38;;;8.54;74.99
73024;BME280;72676;47.526;8.538;2024-01-06T03:06:46;95355.34;;;8.48;75.59
73024;BME280;72676;47.526;8.538;2024-01-06T03:09:18;95359.59;;;8.49;74.58
73024;BME280;72676;47.526;8.538;2024-01-06T03:11:45;95357.28;;;8.46;75.22
73024;BME280;72676;47.526;8.538;2024-01-06T03:14:12;95356.31;;;8.47;75.18
73024;BME280;72676;47.526;8.538;2024-01-06T03:16:38;95353.69;;;8.47;75.21
73024;BME280;72676;47.526;8.538;2024-01-06T03:19:05;95355.13;;;8.41;75.40
73024;BME280;72676;47.526;8.538;2024-01-06T03:21:32;95348.47;;;8.47;75.32
73024;BME280;72676;47.526;8.538;2024-01-06T03:23:59;95353.03;;;8.45;75.25
73024;BME280;72676;47.526;8.538;2024-01-06T03:26:26;95355.94;;;8.42;75.32
73024;BME280;72676;47.526;8.538;2024-01-06T03:28:54;95365.03;;;8.38;75.47
73024;BME280;72676;47.526;8.538;2024-01-06T03:31:20;95365.69;;;8.40;74.94
73024;BME280;72676;47.526;8.538;2024-01-06T03:33:48;95366.66;;;8.39;75.23
73024;BME280;72676;47.526;8.538;2024-01-06T03:36:15;95365.19;;;8.36;75.00
73024;BME280;72676;47.526;8.538;2024-01-06T03:38:43;95373.81;;;8.37;75.21
73024;BME280;72676;47.526;8.538;2024-01-06T03:41:10;95370.63;;;8.43;75.00
73024;BME280;72676;47.526;8.538;2024-01-06T03:43:36;95375.47;;;8.38;74.89
73024;BME280;72676;47.526;8.538;2024-01-06T03:46:03;95375.75;;;8.35;75.14
73024;BME280;72676;47.526;8.538;2024-01-06T03:48:29;95371.88;;;8.39;74.76
73024;BME280;72676;47.526;8.538;2024-01-06T03:50:56;95378.72;;;8.40;74.75
73024;BME280;72676;47.526;8.538;2024-01-06T03:53:23;95377.41;;;8.36;75.06
73024;BME280;72676;47.526;8.538;2024-01-06T03:55:52;95379.88;;;8.37;74.67
73024;BME280;72676;47.526;8.538;2024-01-06T03:58:19;95368.75;;;8.35;73.88
73024;BME280;72676;47.526;8.538;2024-01-06T04:00:45;95370.31;;;8.28;74.38
73024;BME280;72676;47.526;8.538;2024-01-06T04:03:12;95381.28;;;8.32;74.19
73024;BME280;72676;47.526;8.538;2024-01-06T04:05:39;95374.25;;;8.32;73.98
73024;BME280;72676;47.526;8.538;2024-01-06T04:08:05;95377.97;;;8.30;73.75
73024;BME280;72676;47.526;8.538;2024-01-06T04:10:32;95391.84;;;8.30;73.07
73024;BME280;72676;47.526;8.538;2024-01-06T04:12:58;95391.56;;;8.33;73.44
73024;BME280;72676;47.526;8.538;2024-01-06T04:15:25;95389.69;;;8.26;73.49
73024;BME280;72676;47.526;8.538;2024-01-06T04:17:52;95382.44;;;8.20;73.35
73024;BME280;72676;47.526;8.538;2024-01-06T04:20:19;95394.38;;;8.22;72.48
73024;BME280;72676;47.526;8.538;2024-01-06T04:22:45;95394.91;;;8.26;72.94
73024;BME280;72676;47.526;8.538;2024-01-06T04:25:12;95394.47;;;8.30;72.51
73024;BME280;72676;47.526;8.538;2024-01-06T04:27:38;95397.38;;;8.27;73.07
73024;BME280;72676;47.526;8.538;2024-01-06T04:30:05;95390.09;;;8.31;72.73
73024;BME280;72676;47.526;8.538;2024-01-06T04:32:32;95396.41;;;8.28;72.74
73024;BME280;72676;47.526;8.538;2024-01-06T04:34:59;95396.09;;;8.31;72.65
73024;BME280;72676;47.526;8.538;2024-01-06T04:37:25;95399.44;;;8.24;73.14
73024;BME280;72676;47.526;8.538;2024-01-06T04:39:52;95400.13;;;8.26;72.73
73024;BME280;72676;47.526;8.538;2024-01-06T04:42:18;95398.34;;;8.26;73.57
73024;BME280;72676;47.526;8.538;2024-01-06T04:44:46;95406.00;;;8.28;73.38
73024;BME280;72676;47.526;8.538;2024-01-06T04:47:12;95406.97;;;8.27;73.23
73024;BME280;72676;47.526;8.538;2024-01-06T04:49:39;95414.94;;;8.25;72.76
73024;BME280;72676;47.526;8.538;2024-01-06T04:52:05;95408.06;;;8.24;73.31
73024;BME280;72676;47.526;8.538;2024-01-06T04:54:32;95421.81;;;8.26;73.38
73024;BME280;72676;47.526;8.538;2024-01-06T04:56:59;95426.50;;;8.23;73.43
73024;BME280;72676;47.526;8.538;2024-01-06T04:59:25;95426.34;;;8.24;73.43
73024;BME280;72676;47.526;8.538;2024-01-06T05:01:52;95424.69;;;8.23;74.01
73024;BME280;72676;47.526;8.538;2024-01-06T05:04:19;95424.56;;;8.15;74.33
73024;BME280;72676;47.526;8.538;2024-01-06T05:06:46;95423.47;;;8.18;73.66
73024;BME280;72676;47.526;8.538;2024-01-06T05:09:13;95418.97;;;8.10;74.38
73024;BME280;72676;47.526;8.538;2024-01-06T05:11:39;95424.44;;;8.17;74.30
73024;BME280;72676;47.526;8.538;2024-01-06T05:14:06;95428.31;;;8.13;73.70
73024;BME280;72676;47.526;8.538;2024-01-06T05:16:32;95426.63;;;8.12;73.50
73024;BME280;72676;47.526;8.538;2024-01-06T05:18:59;95430.38;;;8.09;73.64
73024;BME280;72676;47.526;8.538;2024-01-06T05:21:25;95433.25;;;8.06;73.55
73024;BME280;72676;47.526;8.538;2024-01-06T05:23:52;95434.28;;;7.96;73.36
73024;BME280;72676;47.526;8.538;2024-01-06T05:26:18;95432.88;;;8.01;73.43
73024;BME280;72676;47.526;8.538;2024-01-06T05:28:45;95438.22;;;8.00;73.80
73024;BME280;72676;47.526;8.538;2024-01-06T05:31:12;95430.22;;;7.65;75.00
73024;BME280;72676;47.526;8.538;2024-01-06T05:33:39;95434.34;;;7.77;74.89
73024;BME280;72676;47.526;8.538;2024-01-06T05:36:06;95434.47;;;7.75;74.83
73024;BME280;72676;47.526;8.538;2024-01-06T05:38:32;95435.38;;;7.84;74.59
73024;BME280;72676;47.526;8.538;2024-01-06T05:40:59;95432.84;;;7.65;75.17
73024;BME280;72676;47.526;8.538;2024-01-06T05:43:25;95436.16;;;7.67;74.97
73024;BME280;72676;47.526;8.538;2024-01-06T05:45:52;95438.59;;;7.78;75.00
73024;BME280;72676;47.526;8.538;2024-01-06T05:48:19;95439.84;;;7.64;74.88
73024;BME280;72676;47.526;8.538;2024-01-06T05:50:45;95445.75;;;7.66;74.91
73024;BME280;72676;47.526;8.538;2024-01-06T05:53:12;95445.38;;;7.42;75.94
73024;BME280;72676;47.526;8.538;2024-01-06T05:55:40;95447.72;;;7.45;76.06
73024;BME280;72676;47.526;8.538;2024-01-06T05:58:07;95456.72;;;7.60;75.36
73024;BME280;72676;47.526;8.538;2024-01-06T06:00:33;95453.69;;;7.65;75.93
73024;BME280;72676;47.526;8.538;2024-01-06T06:03:00;95460.53;;;7.75;75.71
73024;BME280;72676;47.526;8.538;2024-01-06T06:05:26;95466.00;;;7.82;75.51
73024;BME280;72676;47.526;8.538;2024-01-06T06:07:53;95464.91;;;7.84;75.42
73024;BME280;72676;47.526;8.538;2024-01-06T06:10:21;95470.56;;;7.61;75.59
73024;BME280;72676;47.526;8.538;2024-01-06T06:12:47;95474.84;;;7.43;75.93
73024;BME280;72676;47.526;8.538;2024-01-06T06:15:14;95478.44;;;7.23;77.03
73024;BME280;72676;47.526;8.538;2024-01-06T06:17:41;95475.16;;;7.11;76.71
73024;BME280;72676;47.526;8.538;2024-01-06T06:20:07;95485.97;;;7.07;76.24
73024;BME280;72676;47.526;8.538;2024-01-06T06:22:34;95484.19;;;6.98;76.70
73024;BME280;72676;47.526;8.538;2024-01-06T06:25:00;95480.63;;;7.08;76.36
73024;BME280;72676;47.526;8.538;2024-01-06T06:27:27;95480.09;;;7.05;76.63
73024;BME280;72676;47.526;8.538;2024-01-06T06:29:54;95486.78;;;6.98;76.99
73024;BME280;72676;47.526;8.538;2024-01-06T06:32:21;95485.84;;;7.08;77.13
73024;BME280;72676;47.526;8.538;2024-01-06T06:34:48;95489.50;;;6.77;78.27
73024;BME280;72676;47.526;8.538;2024-01-06T06:37:14;95483.56;;;6.66;79.24
73024;BME280;72676;47.526;8.538;2024-01-06T06:39:42;95489.34;;;6.88;78.36
73024;BME280;72676;47.526;8.538;2024-01-06T06:42:11;95486.09;;;7.05;77.97
73024;BME280;72676;47.526;8.538;2024-01-06T06:44:37;95483.66;;;7.04;77.23
73024;BME280;72676;47.526;8.538;2024-01-06T06:47:04;95486.66;;;7.09;76.81
73024;BME280;72676;47.526;8.538;2024-01-06T06:49:30;95488.97;;;6.93;77.82
73024;BME280;72676;47.526;8.538;2024-01-06T06:51:57;95497.38;;;6.57;79.21
73024;BME280;72676;47.526;8.538;2024-01-06T06:54:24;95495.34;;;6.51;80.09
73024;BME280;72676;47.526;8.538;2024-01-06T06:56:50;95502.84;;;6.54;80.00
73024;BME280;72676;47.526;8.538;2024-01-06T06:59:17;95506.31;;;6.64;79.68
73024;BME280;72676;47.526;8.538;2024-01-06T07:01:44;95511.53;;;6.73;78.84
73024;BME280;72676;47.526;8.538;2024-01-06T07:04:10;95511.91;;;6.59;79.05
73024;BME280;72676;47.526;8.538;2024-01-06T07:06:37;95502.19;;;6.52;80.01
73024;BME280;72676;47.526;8.538;2024-01-06T07:09:03;95504.91;;;6.50;79.50
73024;BME280;72676;47.526;8.538;2024-01-06T07:11:31;95502.44;;;6.49;79.51
73024;BME280;72676;47.526;8.538;2024-01-06T07:13:57;95505.41;;;6.35;79.86
73024;BME280;72676;47.526;8.538;2024-01-06T07:16:24;95511.78;;;6.21;80.74
73024;BME280;72676;47.526;8.538;2024-01-06T07:18:50;95509.13;;;6.42;80.52
73024;BME280;72676;47.526;8.538;2024-01-06T07:21:18;95512.56;;;6.52;79.24
73024;BME280;72676;47.526;8.538;2024-01-06T07:23:45;95513.94;;;6.56;79.46
73024;BME280;72676;47.526;8.538;2024-01-06T07:26:12;95513.88;;;6.37;79.23
73024;BME280;72676;47.526;8.538;2024-01-06T07:28:38;95522.88;;;6.23;79.96
73024;BME280;72676;47.526;8.538;2024-01-06T07:31:04;95524.22;;;6.18;80.32
73024;BME280;72676;47.526;8.538;2024-01-06T07:33:32;95525.63;;;6.22;80.00
73024;BME280;72676;47.526;8.538;2024-01-06T07:35:58;95518.91;;;6.19;80.35
73024;BME280;72676;47.526;8.538;2024-01-06T07:38:25;95529.69;;;6.15;79.79
73024;BME280;72676;47.526;8.538;2024-01-06T07:40:51;95535.03;;;5.93;80.36
73024;BME280;72676;47.526;8.538;2024-01-06T07:43:18;95538.75;;;6.00;80.62
73024;BME280;72676;47.526;8.538;2024-01-06T07:45:44;95540.28;;;6.02;81.11
73024;BME280;72676;47.526;8.538;2024-01-06T07:48:11;95547.13;;;6.03;80.15
73024;BME280;72676;47.526;8.538;2024-01-06T07:50:37;95551.75;;;6.00;80.75
73024;BME280;72676;47.526;8.538;2024-01-06T07:53:04;95559.06;;;6.06;80.93
73024;BME280;72676;47.526;8.538;2024-01-06T07:55:31;95559.47;;;6.11;80.83
73024;BME280;72676;47.526;8.538;2024-01-06T07:57:57;95553.25;;;6.23;80.31
73024;BME280;72676;47.526;8.538;2024-01-06T08:00:24;95558.97;;;6.17;80.28
73024;BME280;72676;47.526;8.538;2024-01-06T08:02:51;95556.53;;;6.25;80.41
73024;BME280;72676;47.526;8.538;2024-01-06T08:05:17;95556.81;;;6.22;80.41
73024;BME280;72676;47.526;8.538;2024-01-06T08:07:43;95565.97;;;6.16;80.07
73024;BME280;72676;47.526;8.538;2024-01-06T08:10:10;95557.44;;;6.14;80.57
73024;BME280;72676;47.526;8.538;2024-01-06T08:12:36;95560.75;;;6.16;80.67
73024;BME280;72676;47.526;8.538;2024-01-06T08:15:04;95562.97;;;6.21;80.80
73024;BME280;72676;47.526;8.538;2024-01-06T08:17:31;95561.75;;;6.25;80.28
73024;BME280;72676;47.526;8.538;2024-01-06T08:19:57;95558.47;;;6.02;80.18
73024;BME280;72676;47.526;8.538;2024-01-06T08:22:24;95560.28;;;6.32;80.10
73024;BME280;72676;47.526;8.538;2024-01-06T08:24:50;95554.19;;;6.52;79.03
73024;BME280;72676;47.526;8.538;2024-01-06T08:27:17;95563.44;;;6.75;78.72
73024;BME280;72676;47.526;8.538;2024-01-06T08:29:43;95568.00;;;6.92;77.80
73024;BME280;72676;47.526;8.538;2024-01-06T08:32:10;95570.34;;;6.95;77.38
73024;BME280;72676;47.526;8.538;2024-01-06T08:34:37;95577.91;;;7.07;77.56
73024;BME280;72676;47.526;8.538;2024-01-06T08:37:04;95587.09;;;7.11;76.71
73024;BME280;72676;47.526;8.538;2024-01-06T08:39:31;95574.88;;;7.12;76.60
73024;BME280;72676;47.526;8.538;2024-01-06T08:41:57;95578.41;;;6.92;76.75
73024;BME280;72676;47.526;8.538;2024-01-06T08:44:27;95584.72;;;6.89;76.97
73024;BME280;72676;47.526;8.538;2024-01-06T08:46:54;95583.38;;;6.95;76.54
73024;BME280;72676;47.526;8.538;2024-01-06T08:49:21;95587.06;;;6.92;76.94
73024;BME280;72676;47.526;8.538;2024-01-06T08:51:48;95593.88;;;6.84;77.10
73024;BME280;72676;47.526;8.538;2024-01-06T08:54:14;95597.34;;;6.94;77.07
73024;BME280;72676;47.526;8.538;2024-01-06T08:56:43;95603.25;;;6.66;77.63
73024;BME280;72676;47.526;8.538;2024-01-06T08:59:09;95601.88;;;6.62;78.25
73024;BME280;72676;47.526;8.538;2024-01-06T09:01:36;95594.91;;;6.62;78.28
73024;BME280;72676;47.526;8.538;2024-01-06T09:04:04;95607.78;;;6.34;79.59
73024;BME280;72676;47.526;8.538;2024-01-06T09:06:31;95608.25;;;5.98;80.78
73024;BME280;72676;47.526;8.538;2024-01-06T09:08:57;95607.03;;;6.02;81.39
73024;BME280;72676;47.526;8.538;2024-01-06T09:11:24;95607.66;;;6.15;81.34
73024;BME280;72676;47.526;8.538;2024-01-06T09:13:50;95617.56;;;6.21;81.56
73024;BME280;72676;47.526;8.538;2024-01-06T09:16:20;95617.91;;;6.37;81.11
73024;BME280;72676;47.526;8.538;2024-01-06T09:18:46;95612.59;;;6.18;80.35
73024;BME280;72676;47.526;8.538;2024-01-06T09:21:13;95610.91;;;5.87;81.75
73024;BME280;72676;47.526;8.538;2024-01-06T09:23:40;95615.84;;;5.90;82.55
73024;BME280;72676;47.526;8.538;2024-01-06T09:26:06;95611.78;;;5.97;81.79
73024;BME280;72676;47.526;8.538;2024-01-06T09:28:33;95612.22;;;6.02;81.69
73024;BME280;72676;47.526;8.538;2024-01-06T09:30:59;95610.28;;;6.15;81.51
73024;BME280;72676;47.526;8.538;2024-01-06T09:33:26;95617.91;;;6.37;80.51
73024;BME280;72676;47.526;8.538;2024-01-06T09:35:53;95611.06;;;6.36;80.22
73024;BME280;72676;47.526;8.538;2024-01-06T09:38:19;95612.97;;;6.34;79.86
73024;BME280;72676;47.526;8.538;2024-01-06T09:40:47;95621.22;;;6.39;79.32
73024;BME280;72676;47.526;8.538;2024-01-06T09:43:14;95613.69;;;6.15;79.97
73024;BME280;72676;47.526;8.538;2024-01-06T09:45:41;95612.03;;;6.14;80.75
73024;BME280;72676;47.526;8.538;2024-01-06T09:48:12;95614.72;;;6.03;81.53
73024;BME280;72676;47.526;8.538;2024-01-06T09:50:43;95605.56;;;6.09;81.88
73024;BME280;72676;47.526;8.538;2024-01-06T09:53:13;95622.69;;;6.11;81.29
73024;BME280;72676;47.526;8.538;2024-01-06T09:55:40;95616.50;;;6.03;81.42
73024;BME280;72676;47.526;8.538;2024-01-06T09:58:08;95614.06;;;6.11;81.59
73024;BME280;72676;47.526;8.538;2024-01-06T10:00:35;95618.75;;;6.37;81.23
73024;BME280;72676;47.526;8.538;2024-01-06T10:04:17;95619.56;;;6.68;80.44
73024;BME280;72676;47.526;8.538;2024-01-06T10:06:49;95618.47;;;6.70;80.13
73024;BME280;72676;47.526;8.538;2024-01-06T10:09:16;95611.78;;;6.77;79.57
73024;BME280;72676;47.526;8.538;2024-01-06T10:11:42;95609.06;;;6.79;78.65
73024;BME280;72676;47.526;8.538;2024-01-06T10:14:09;95612.09;;;6.84;78.42
73024;BME280;72676;47.526;8.538;2024-01-06T10:16:36;95605.34;;;6.72;78.17
73024;BME280;72676;47.526;8.538;2024-01-06T10:19:03;95612.41;;;6.60;78.84
73024;BME280;72676;47.526;8.538;2024-01-06T10:21:31;95617.22;;;6.65;78.67
73024;BME280;72676;47.526;8.538;2024-01-06T10:23:59;95614.41;;;6.47;79.31
73024;BME280;72676;47.526;8.538;2024-01-06T10:26:26;95608.53;;;6.25;80.01
73024;BME280;72676;47.526;8.538;2024-01-06T10:28:53;95609.13;;;6.28;79.76
73024;BME280;72676;47.526;8.538;2024-01-06T10:31:19;95610.38;;;6.13;79.83
73024;BME280;72676;47.526;8.538;2024-01-06T10:33:46;95612.03;;;6.14;80.67
73024;BME280;72676;47.526;8.538;2024-01-06T10:36:14;95603.06;;;6.28;79.94
73024;BME280;72676;47.526;8.538;2024-01-06T10:38:42;95610.09;;;6.37;79.83
73024;BME280;72676;47.526;8.538;2024-01-06T10:41:09;95606.03;;;6.44;80.06
73024;BME280;72676;47.526;8.538;2024-01-06T10:43:37;95606.28;;;6.71;79.30
73024;BME280;72676;47.526;8.538;2024-01-06T10:46:07;95610.34;;;6.54;79.05
73024;BME280;72676;47.526;8.538;2024-01-06T10:48:38;95602.84;;;6.61;78.63
73024;BME280;72676;47.526;8.538;2024-01-06T10:51:09;95602.38;;;6.46;79.05
73024;BME280;72676;47.526;8.538;2024-01-06T10:53:36;95597.38;;;6.34;79.66
73024;BME280;72676;47.526;8.538;2024-01-06T10:56:06;95603.34;;;6.55;79.01
73024;BME280;72676;47.526;8.538;2024-01-06T10:58:37;95590.78;;;6.60;78.76
73024;BME280;72676;47.526;8.538;2024-01-06T11:01:09;95598.50;;;6.41;79.33
73024;BME280;72676;47.526;8.538;2024-01-06T11:03:37;95584.78;;;6.69;78.48
73024;BME280;72676;47.526;8.538;2024-01-06T11:06:08;95591.81;;;6.78;78.85
73024;BME280;72676;47.526;8.538;2024-01-06T11:09:01;95590.47;;;6.93;78.09
73024;BME280;72676;47.526;8.538;2024-01-06T11:11:31;95590.34;;;6.94;78.30
73024;BME280;72676;47.526;8.538;2024-01-06T11:14:21;95582.44;;;6.66;78.18
73024;BME280;72676;47.526;8.538;2024-01-06T11:16:48;95589.84;;;6.61;78.67
73024;BME280;72676;47.526;8.538;2024-01-06T11:22:20;95588.44;;;6.57;79.17
73024;BME280;72676;47.526;8.538;2024-01-06T11:24:48;95586.31;;;6.71;78.77
73024;BME280;72676;47.526;8.538;2024-01-06T11:27:20;95584.34;;;6.54;79.62
73024;BME280;72676;47.526;8.538;2024-01-06T11:29:51;95581.41;;;6.48;79.56
73024;BME280;72676;47.526;8.538;2024-01-06T11:34:48;95586.00;;;6.65;79.28
73024;BME280;72676;47.526;8.538;2024-01-06T11:37:17;95585.34;;;6.72;79.44
73024;BME280;72676;47.526;8.538;2024-01-06T11:39:44;95589.66;;;6.53;79.50
73024;BME280;72676;47.526;8.538;2024-01-06T11:42:11;95590.44;;;6.44;80.11
73024;BME280;72676;47.526;8.538;2024-01-06T11:44:39;95581.59;;;6.26;81.25
73024;BME280;72676;47.526;8.538;2024-01-06T11:47:06;95574.44;;;6.48;80.40
73024;BME280;72676;47.526;8.538;2024-01-06T11:49:32;95581.84;;;6.53;79.43
73024;BME280;72676;47.526;8.538;2024-01-06T11:52:00;95579.16;;;6.64;79.19
73024;BME280;72676;47.526;8.538;2024-01-06T11:54:27;95574.97;;;6.82;78.73
73024;BME280;72676;47.526;8.538;2024-01-06T11:56:53;95575.00;;;7.01;78.99
73024;BME280;72676;47.526;8.538;2024-01-06T11:59:20;95572.28;;;7.12;77.97
73024;BME280;72676;47.526;8.538;2024-01-06T12:01:47;95571.75;;;7.08;77.87
73024;BME280;72676;47.526;8.538;2024-01-06T12:04:14;95567.91;;;7.12;77.67
73024;BME280;72676;47.526;8.538;2024-01-06T12:06:41;95568.34;;;7.27;76.82
73024;BME280;72676;47.526;8.538;2024-01-06T12:09:11;95567.25;;;7.39;77.14
73024;BME280;72676;47.526;8.538;2024-01-06T12:11:41;95553.28;;;7.40;76.35
73024;BME280;72676;47.526;8.538;2024-01-06T12:14:07;95564.78;;;7.18;75.77
73024;BME280;72676;47.526;8.538;2024-01-06T12:16:34;95556.44;;;7.34;75.95
73024;BME280;72676;47.526;8.538;2024-01-06T12:19:01;95556.28;;;7.26;75.97
73024;BME280;72676;47.526;8.538;2024-01-06T12:21:29;95550.78;;;7.29;76.09
73024;BME280;72676;47.526;8.538;2024-01-06T12:24:15;95553.00;;;7.43;75.46
73024;BME280;72676;47.526;8.538;2024-01-06T12:26:44;95547.50;;;7.46;75.21
73024;BME280;72676;47.526;8.538;2024-01-06T12:29:12;95550.28;;;7.44;75.51
73024;BME280;72676;47.526;8.538;2024-01-06T12:31:42;95544.38;;;7.33;75.87
73024;BME280;72676;47.526;8.538;2024-01-06T12:34:10;95545.88;;;7.26;76.48
73024;BME280;72676;47.526;8.538;2024-01-06T12:36:38;95551.59;;;7.20;76.56
73024;BME280;72676;47.526;8.538;2024-01-06T12:39:10;95541.75;;;7.14;77.02
73024;BME280;72676;47.526;8.538;2024-01-06T12:41:37;95546.81;;;7.25;76.75
73024;BME280;72676;47.526;8.538;2024-01-06T12:44:04;95537.63;;;7.30;76.52
73024;BME280;72676;47.526;8.538;2024-01-06T12:46:31;95543.69;;;7.31;76.15
73024;BME280;72676;47.526;8.538;2024-01-06T12:48:57;95543.41;;;7.34;75.75
73024;BME280;72676;47.526;8.538;2024-01-06T12:51:24;95535.72;;;7.04;76.36
73024;BME280;72676;47.526;8.538;2024-01-06T12:53:50;95538.31;;;7.04;76.98
73024;BME280;72676;47.526;8.538;2024-01-06T12:56:17;95541.00;;;6.93;77.08
73024;BME280;72676;47.526;8.538;2024-01-06T12:58:44;95544.41;;;6.84;77.72
73024;BME280;72676;47.526;8.538;2024-01-06T13:01:11;95538.97;;;6.87;77.65
73024;BME280;72676;47.526;8.538;2024-01-06T13:03:37;95539.72;;;6.68;78.42
73024;BME280;72676;47.526;8.538;2024-01-06T13:06:04;95547.88;;;6.45;79.31
73024;BME280;72676;47.526;8.538;2024-01-06T13:08:30;95542.66;;;6.35;79.71
73024;BME280;72676;47.526;8.538;2024-01-06T13:10:57;95557.38;;;6.25;80.63
73024;BME280;72676;47.526;8.538;2024-01-06T13:13:24;95543.03;;;6.31;80.99
73024;BME280;72676;47.526;8.538;2024-01-06T13:15:50;95544.69;;;6.41;80.58